Time;durP1;ratioP1;P1;durP2;ratioP2;P2;SDS_P1;SDS_P2;PMS_P1;PMS_P2;Temp;Humidity;BMP_temperature;BMP_pressure;BME280_temperature;BME280_humidity;BME280_pressure;Samples;Min_cycle;Max_cycle;Signal;HPM_P1;HPM_P2
2022/05/23 00:02:01;;;;;;;;;;;17.30;99.90;;;;;;5065039;28;19921;-68
2022/05/23 00:04:28;;;;;;;;;;;17.30;99.90;;;;;;5064672;28;19921;-69
2022/05/23 00:06:56;;;;;;;;;;;17.20;99.90;;;;;;5062881;28;19927;-69
2022/05/23 00:09:23;;;;;;;;;;;17.20;99.90;;;;;;5063340;28;19929;-69
2022/05/23 00:11:49;;;;;;;;;;;17.20;99.90;;;;;;5074148;28;19936;-69
2022/05/23 00:14:18;;;;;;;;;;;17.20;99.90;;;;;;5070608;28;19927;-69
2022/05/23 00:16:45;;;;;;;;;;;17.20;99.90;;;;;;5075467;28;19920;-69
2022/05/23 00:19:14;;;;;;;;;;;17.30;99.90;;;;;;5067681;28;20135;-69
2022/05/23 00:21:42;;;;;;;;;;;17.20;99.90;;;;;;5063315;28;19920;-69
2022/05/23 00:24:08;;;;;;;;;;;17.20;99.90;;;;;;5062962;28;20204;-69
2022/05/23 00:26:35;;;;;;;;;;;17.20;99.90;;;;;;5062864;28;19920;-69
2022/05/23 00:29:02;;;;;;;;;;;17.10;99.90;;;;;;5071030;28;19920;-69
2022/05/23 00:31:29;;;;;;;;;;;17.10;99.90;;;;;;5066492;28;19921;-69
2022/05/23 00:36:41;;;;;;;;;;;17.00;99.90;;;;;;5067774;28;20168;-69
2022/05/23 00:39:08;;;;;;;;;;;17.00;99.90;;;;;;5063135;28;19924;-69
2022/05/23 00:44:22;;;;;;;;;;;17.00;99.90;;;;;;5069422;28;19928;-69
2022/05/23 00:46:49;;;;;;;;;;;16.90;99.90;;;;;;5082419;28;19921;-69
2022/05/23 00:49:18;;;;;;;;;;;16.90;99.90;;;;;;5082794;28;19920;-69
2022/05/23 00:51:46;;;;;;;;;;;16.90;99.90;;;;;;5082993;28;19927;-69
2022/05/23 00:54:13;;;;;;;;;;;16.80;99.90;;;;;;5066406;28;19927;-69
2022/05/23 00:56:43;;;;;;;;;;;16.80;99.90;;;;;;5059828;28;19935;-69
2022/05/23 00:59:11;;;;;;;;;;;16.80;99.90;;;;;;5078489;28;19924;-69
2022/05/23 01:01:37;;;;;;;;;;;16.70;99.90;;;;;;5082823;28;19927;-70
2022/05/23 01:04:05;;;;;;;;;;;16.70;99.90;;;;;;5083219;28;19927;-69
2022/05/23 01:06:31;;;;;;;;;;;16.60;99.90;;;;;;5083358;28;20164;-69
2022/05/23 01:08:59;;;;;;;;;;;16.60;99.90;;;;;;5086808;28;19943;-69
2022/05/23 01:11:27;;;;;;;;;;;16.60;99.90;;;;;;5086489;28;19928;-69
2022/05/23 01:13:54;;;;;;;;;;;16.50;99.90;;;;;;5082402;28;19924;-69
2022/05/23 01:16:21;;;;;;;;;;;16.50;99.90;;;;;;5086161;28;19928;-69
2022/05/23 01:18:48;;;;;;;;;;;16.40;99.90;;;;;;5086810;28;19920;-69
2022/05/23 01:21:18;;;;;;;;;;;16.40;99.90;;;;;;5085993;28;20276;-69
2022/05/23 01:23:48;;;;;;;;;;;16.30;99.90;;;;;;5066406;28;19921;-69
2022/05/23 01:26:16;;;;;;;;;;;16.30;99.90;;;;;;5065975;28;19943;-69
2022/05/23 01:28:42;;;;;;;;;;;16.30;99.90;;;;;;5070411;28;19928;-69
2022/05/23 01:31:11;;;;;;;;;;;16.20;99.90;;;;;;5073612;28;19921;-69
2022/05/23 01:33:38;;;;;;;;;;;16.20;99.90;;;;;;5069562;28;19927;-69
2022/05/23 01:36:05;;;;;;;;;;;16.10;99.90;;;;;;5076800;28;19920;-69
2022/05/23 01:38:32;;;;;;;;;;;16.10;99.90;;;;;;5077766;28;20191;-69
2022/05/23 01:40:59;;;;;;;;;;;16.10;99.90;;;;;;5086356;28;19950;-69
2022/05/23 01:43:27;;;;;;;;;;;16.00;99.90;;;;;;5085755;28;19932;-69
2022/05/23 01:45:53;;;;;;;;;;;16.00;99.90;;;;;;5085504;28;19920;-69
2022/05/23 01:48:20;;;;;;;;;;;16.00;99.90;;;;;;5084579;28;19920;-69
2022/05/23 01:50:47;;;;;;;;;;;15.90;99.90;;;;;;5074295;28;19927;-69
2022/05/23 01:53:13;;;;;;;;;;;16.00;99.90;;;;;;5075340;28;19921;-69
2022/05/23 01:55:40;;;;;;;;;;;16.00;99.90;;;;;;5065105;28;19935;-69
2022/05/23 01:58:06;;;;;;;;;;;15.90;99.90;;;;;;5063420;28;19933;-69
2022/05/23 02:03:19;;;;;;;;;;;15.90;99.90;;;;;;5078660;28;19966;-69
2022/05/23 02:05:45;;;;;;;;;;;15.80;99.90;;;;;;5083769;28;19928;-69
2022/05/23 02:08:12;;;;;;;;;;;15.80;99.90;;;;;;5085625;28;19921;-69
2022/05/23 02:10:39;;;;;;;;;;;15.80;99.90;;;;;;5085879;28;20122;-69
2022/05/23 02:13:05;;;;;;;;;;;15.70;99.90;;;;;;5086044;28;19920;-69
2022/05/23 02:15:32;;;;;;;;;;;15.80;99.90;;;;;;5083405;28;20227;-69
2022/05/23 02:18:00;;;;;;;;;;;15.70;99.90;;;;;;5083642;28;19927;-69
2022/05/23 02:20:28;;;;;;;;;;;15.70;99.90;;;;;;5086122;28;19920;-69
2022/05/23 02:22:54;;;;;;;;;;;15.70;99.90;;;;;;5085466;28;19999;-69
2022/05/23 02:25:21;;;;;;;;;;;15.60;99.90;;;;;;5084799;28;19920;-69
2022/05/23 02:27:48;;;;;;;;;;;15.60;99.90;;;;;;5085018;28;19920;-69
2022/05/23 02:30:14;;;;;;;;;;;15.50;99.90;;;;;;5077471;28;19920;-68
2022/05/23 02:32:41;;;;;;;;;;;15.50;99.90;;;;;;5068325;28;19928;-69
2022/05/23 02:35:09;;;;;;;;;;;15.40;99.90;;;;;;5049014;28;19921;-69
2022/05/23 02:37:37;;;;;;;;;;;15.40;99.90;;;;;;5064982;28;19924;-69
2022/05/23 02:40:04;;;;;;;;;;;15.40;99.90;;;;;;5065429;28;20192;-68
2022/05/23 02:42:31;;;;;;;;;;;15.40;99.90;;;;;;5065653;28;19943;-68
2022/05/23 02:44:57;;;;;;;;;;;15.30;99.90;;;;;;5082041;28;19920;-69
2022/05/23 02:47:24;;;;;;;;;;;15.30;99.90;;;;;;5084506;28;19927;-68
2022/05/23 02:49:50;;;;;;;;;;;15.30;99.90;;;;;;5083259;28;19920;-68
2022/05/23 02:52:18;;;;;;;;;;;15.30;99.90;;;;;;5085097;28;20226;-69
2022/05/23 02:54:45;;;;;;;;;;;15.20;99.90;;;;;;5068268;28;19933;-69
2022/05/23 02:57:11;;;;;;;;;;;15.10;99.90;;;;;;5061837;28;19921;-68
2022/05/23 02:59:38;;;;;;;;;;;15.10;99.90;;;;;;5064713;28;19958;-69
2022/05/23 03:04:49;;;;;;;;;;;15.10;99.90;;;;;;5082185;28;19928;-69
2022/05/23 03:07:16;;;;;;;;;;;15.00;99.90;;;;;;5084355;28;19921;-69
2022/05/23 03:09:45;;;;;;;;;;;14.90;99.90;;;;;;5065115;28;19999;-69
2022/05/23 03:12:12;;;;;;;;;;;14.90;99.90;;;;;;5064708;28;19921;-68
2022/05/23 03:14:39;;;;;;;;;;;14.90;99.90;;;;;;5064644;28;19921;-69
2022/05/23 03:17:06;;;;;;;;;;;14.80;99.90;;;;;;5065983;28;19932;-68
2022/05/23 03:19:35;;;;;;;;;;;14.80;99.90;;;;;;5073686;28;19966;-68
2022/05/23 03:27:32;;;;;;;;;;;14.70;99.90;;;;;;5083798;28;19929;-69
2022/05/23 03:29:59;;;;;;;;;;;14.60;99.90;;;;;;5084298;28;19924;-68
2022/05/23 03:32:25;;;;;;;;;;;14.50;99.90;;;;;;5075970;28;19921;-69
2022/05/23 03:34:52;;;;;;;;;;;14.50;99.90;;;;;;5064091;28;19927;-69
2022/05/23 03:37:18;;;;;;;;;;;14.40;99.90;;;;;;5063468;28;19921;-69
2022/05/23 03:39:45;;;;;;;;;;;14.40;99.90;;;;;;5064044;28;19928;-69
2022/05/23 03:42:13;;;;;;;;;;;14.30;99.90;;;;;;5064207;28;20123;-69
2022/05/23 03:44:39;;;;;;;;;;;14.30;99.90;;;;;;5063754;28;20178;-69
2022/05/23 03:47:06;;;;;;;;;;;14.30;99.90;;;;;;5080290;28;19927;-69
2022/05/23 03:49:33;;;;;;;;;;;14.30;99.90;;;;;;5084320;28;19952;-69
2022/05/23 03:52:00;;;;;;;;;;;14.20;99.90;;;;;;5083855;28;19920;-69
2022/05/23 03:54:26;;;;;;;;;;;14.20;99.90;;;;;;5076799;28;19920;-69
2022/05/23 03:56:57;;;;;;;;;;;14.30;99.90;;;;;;5060571;28;20204;-69
2022/05/23 03:59:26;;;;;;;;;;;14.20;99.90;;;;;;5064927;28;19921;-69
2022/05/23 04:01:52;;;;;;;;;;;14.30;99.90;;;;;;5069983;28;19920;-69
2022/05/23 04:04:20;;;;;;;;;;;14.30;99.90;;;;;;5063451;28;19921;-68
2022/05/23 04:06:46;;;;;;;;;;;14.30;99.90;;;;;;5062947;28;19920;-69
2022/05/23 04:09:13;;;;;;;;;;;14.20;99.90;;;;;;5063269;28;19936;-69
2022/05/23 04:11:40;;;;;;;;;;;14.30;99.90;;;;;;5050784;28;19921;-69
2022/05/23 04:14:06;;;;;;;;;;;14.20;99.90;;;;;;5054922;28;19927;-69
2022/05/23 04:16:34;;;;;;;;;;;14.30;99.90;;;;;;5062835;28;19927;-68
2022/05/23 04:19:04;;;;;;;;;;;14.30;99.90;;;;;;5063239;28;19921;-69
2022/05/23 04:21:31;;;;;;;;;;;14.30;99.90;;;;;;5064772;28;19928;-69
2022/05/23 04:23:57;;;;;;;;;;;14.30;99.90;;;;;;5063587;28;20131;-68
2022/05/23 04:26:24;;;;;;;;;;;14.30;99.90;;;;;;5063810;28;19944;-68
2022/05/23 04:28:51;;;;;;;;;;;14.30;99.90;;;;;;5082964;28;19924;-69
2022/05/23 04:31:19;;;;;;;;;;;14.30;99.90;;;;;;5073384;28;20090;-68
2022/05/23 04:36:31;;;;;;;;;;;14.30;99.90;;;;;;5062851;28;19932;-68
2022/05/23 04:38:58;;;;;;;;;;;14.40;99.90;;;;;;5063754;28;19967;-68
2022/05/23 04:41:24;;;;;;;;;;;14.40;99.90;;;;;;5063132;28;19921;-68
2022/05/23 04:43:51;;;;;;;;;;;14.40;99.90;;;;;;5063624;28;19921;-68
2022/05/23 04:46:18;;;;;;;;;;;14.50;99.90;;;;;;5060482;28;19921;-68
2022/05/23 04:51:31;;;;;;;;;;;14.60;99.90;;;;;;5063522;28;19927;-68
2022/05/23 04:53:57;;;;;;;;;;;14.70;99.90;;;;;;5063586;28;19925;-68
2022/05/23 04:56:25;;;;;;;;;;;14.80;99.90;;;;;;5059943;28;19933;-68
2022/05/23 04:58:52;;;;;;;;;;;14.80;99.90;;;;;;5063530;28;19921;-68
2022/05/23 05:01:21;;;;;;;;;;;14.90;99.90;;;;;;5063508;28;19929;-68
2022/05/23 05:03:49;;;;;;;;;;;15.00;99.90;;;;;;5063544;28;19987;-68
2022/05/23 05:06:16;;;;;;;;;;;15.10;99.90;;;;;;5062668;28;19921;-68
2022/05/23 05:08:44;;;;;;;;;;;15.10;99.90;;;;;;5063300;28;20112;-70
2022/05/23 05:11:10;;;;;;;;;;;15.20;99.90;;;;;;5063130;28;19925;-68
2022/05/23 05:13:38;;;;;;;;;;;15.30;99.90;;;;;;5063412;28;20124;-68
2022/05/23 05:16:05;;;;;;;;;;;15.30;99.90;;;;;;5078038;28;20089;-67
2022/05/23 05:18:32;;;;;;;;;;;15.30;99.90;;;;;;5083564;28;20207;-67
2022/05/23 05:21:04;;;;;;;;;;;15.40;99.90;;;;;;5083453;28;19921;-67
2022/05/23 05:23:30;;;;;;;;;;;15.40;99.90;;;;;;5082896;28;19931;-67
2022/05/23 05:26:05;;;;;;;;;;;15.40;99.90;;;;;;5080474;28;19920;-67
2022/05/23 05:28:32;;;;;;;;;;;15.40;99.90;;;;;;5083123;28;19974;-68
2022/05/23 05:31:02;;;;;;;;;;;15.40;99.90;;;;;;5082819;28;20262;-67
2022/05/23 05:33:31;;;;;;;;;;;15.40;99.90;;;;;;5083232;28;19920;-68
2022/05/23 05:36:01;;;;;;;;;;;15.40;99.90;;;;;;5065360;28;19921;-66
2022/05/23 05:38:31;;;;;;;;;;;15.40;99.90;;;;;;5062589;28;20123;-67
2022/05/23 05:41:01;;;;;;;;;;;15.40;99.90;;;;;;5062738;28;20041;-67
2022/05/23 05:43:36;;;;;;;;;;;15.50;99.90;;;;;;5062926;28;20139;-67
2022/05/23 05:46:05;;;;;;;;;;;15.40;99.90;;;;;;5061456;28;19927;-67
2022/05/23 05:48:31;;;;;;;;;;;15.20;99.90;;;;;;5062666;28;19921;-66
2022/05/23 05:50:58;;;;;;;;;;;15.20;99.90;;;;;;5062154;28;20124;-66
2022/05/23 05:53:28;;;;;;;;;;;15.20;99.90;;;;;;5060775;28;19932;-67
2022/05/23 05:55:57;;;;;;;;;;;15.10;99.90;;;;;;5064842;28;19928;-67
2022/05/23 05:58:24;;;;;;;;;;;15.00;99.90;;;;;;5044090;28;19929;-67
2022/05/23 06:00:50;;;;;;;;;;;15.00;99.90;;;;;;5045820;28;20205;-67
2022/05/23 06:03:17;;;;;;;;;;;14.90;99.90;;;;;;5045769;28;19921;-67
2022/05/23 06:11:25;;;;;;;;;;;14.80;99.90;;;;;;5046240;28;19924;-67
2022/05/23 06:13:51;;;;;;;;;;;14.80;99.90;;;;;;5046183;28;19984;-67
2022/05/23 06:16:21;;;;;;;;;;;14.90;99.90;;;;;;5044291;28;19921;-67
2022/05/23 06:18:48;;;;;;;;;;;14.80;99.90;;;;;;5062422;28;20231;-67
2022/05/23 06:21:15;;;;;;;;;;;14.80;99.90;;;;;;5065745;28;19929;-67
2022/05/23 06:23:42;;;;;;;;;;;14.80;99.90;;;;;;5066139;28;19920;-67
2022/05/23 06:26:08;;;;;;;;;;;14.80;99.90;;;;;;5065220;28;19921;-67
2022/05/23 06:28:37;;;;;;;;;;;14.80;99.90;;;;;;5065856;28;19921;-67
2022/05/23 06:31:03;;;;;;;;;;;14.80;99.90;;;;;;5066016;28;19927;-67
2022/05/23 06:33:30;;;;;;;;;;;14.80;99.90;;;;;;5065609;28;22143;-67
2022/05/23 06:35:57;;;;;;;;;;;14.80;99.90;;;;;;5065090;28;19920;-68
2022/05/23 06:38:24;;;;;;;;;;;14.80;99.90;;;;;;5065899;28;19924;-68
2022/05/23 06:40:51;;;;;;;;;;;14.80;99.90;;;;;;5065909;28;19979;-67
2022/05/23 06:43:18;;;;;;;;;;;14.80;99.90;;;;;;5065209;28;19927;-67
2022/05/23 06:45:47;;;;;;;;;;;14.80;99.90;;;;;;5065036;28;20116;-67
2022/05/23 06:48:14;;;;;;;;;;;14.80;99.90;;;;;;5051765;28;19925;-67
2022/05/23 06:50:40;;;;;;;;;;;14.90;99.90;;;;;;5045738;28;19929;-67
2022/05/23 06:53:13;;;;;;;;;;;14.80;99.90;;;;;;5044484;28;19927;-67
2022/05/23 06:55:40;;;;;;;;;;;14.80;99.90;;;;;;5084437;28;19928;-67
2022/05/23 06:58:07;;;;;;;;;;;14.70;99.90;;;;;;5085155;28;19920;-67
2022/05/23 07:00:35;;;;;;;;;;;14.60;99.90;;;;;;5085320;28;20175;-67
2022/05/23 07:03:03;;;;;;;;;;;14.60;99.90;;;;;;5084890;28;19954;-67
2022/05/23 07:13:44;;;;;;;;;;;14.50;99.90;;;;;;5081866;28;19983;-67
2022/05/23 07:16:11;;;;;;;;;;;14.50;99.90;;;;;;5064523;28;19927;-68
2022/05/23 07:18:39;;;;;;;;;;;14.50;99.90;;;;;;5065261;28;19921;-67
2022/05/23 07:21:07;;;;;;;;;;;14.50;99.90;;;;;;5065069;28;20164;-67
2022/05/23 07:23:34;;;;;;;;;;;14.50;99.90;;;;;;5064518;28;19943;-67
2022/05/23 07:26:09;;;;;;;;;;;14.60;99.90;;;;;;5061546;28;19921;-67
2022/05/23 07:28:36;;;;;;;;;;;14.60;99.90;;;;;;5064915;28;19935;-66
2022/05/23 07:31:02;;;;;;;;;;;14.80;99.90;;;;;;5064663;28;20200;-67
2022/05/23 07:33:29;;;;;;;;;;;14.80;99.90;;;;;;5060910;28;19921;-66
2022/05/23 07:35:58;;;;;;;;;;;15.00;99.90;;;;;;5052746;28;19920;-67
2022/05/23 07:38:25;;;;;;;;;;;15.00;99.90;;;;;;5044415;28;19921;-67
2022/05/23 07:40:51;;;;;;;;;;;15.10;99.90;;;;;;5044708;28;20120;-67
2022/05/23 07:43:18;;;;;;;;;;;15.10;99.90;;;;;;5044420;28;19928;-67
2022/05/23 07:45:45;;;;;;;;;;;15.20;99.90;;;;;;5043932;28;19927;-67
2022/05/23 07:48:11;;;;;;;;;;;15.30;99.90;;;;;;5044586;28;19928;-67
2022/05/23 07:50:38;;;;;;;;;;;15.30;99.90;;;;;;5043786;28;20251;-67
2022/05/23 08:01:19;;;;;;;;;;;15.50;99.90;;;;;;5043993;28;20167;-66
2022/05/23 08:03:47;;;;;;;;;;;15.70;99.90;;;;;;5043896;28;20132;-66
2022/05/23 08:06:13;;;;;;;;;;;15.80;99.90;;;;;;5043447;28;20090;-68
2022/05/23 08:08:41;;;;;;;;;;;15.90;99.90;;;;;;5044316;28;19921;-68
2022/05/23 08:11:09;;;;;;;;;;;15.90;99.90;;;;;;5044261;28;20036;-69
2022/05/23 08:13:36;;;;;;;;;;;16.00;99.90;;;;;;5044098;28;19928;-69
2022/05/23 08:16:03;;;;;;;;;;;16.10;99.90;;;;;;5042192;28;19928;-69
2022/05/23 08:18:30;;;;;;;;;;;16.20;99.90;;;;;;5043758;28;19956;-68
2022/05/23 08:20:57;;;;;;;;;;;16.30;99.90;;;;;;5044418;28;19953;-68
2022/05/23 08:23:23;;;;;;;;;;;16.30;99.90;;;;;;5044095;28;19921;-68
2022/05/23 08:25:52;;;;;;;;;;;16.40;99.90;;;;;;5040533;28;20208;-69
2022/05/23 08:28:19;;;;;;;;;;;16.50;99.90;;;;;;5043454;28;19921;-70
2022/05/23 08:30:45;;;;;;;;;;;16.60;99.90;;;;;;5043530;28;19921;-69
2022/05/23 08:33:12;;;;;;;;;;;16.60;99.90;;;;;;5043997;28;19928;-69
2022/05/23 08:35:39;;;;;;;;;;;16.70;99.90;;;;;;5050500;28;19921;-69
2022/05/23 08:38:06;;;;;;;;;;;16.80;99.90;;;;;;5060848;28;19920;-69
2022/05/23 08:40:38;;;;;;;;;;;16.80;99.90;;;;;;5062797;28;19928;-69
2022/05/23 08:43:07;;;;;;;;;;;16.80;99.90;;;;;;5061008;28;19929;-69
2022/05/23 08:45:37;;;;;;;;;;;16.90;99.90;;;;;;5062172;28;19989;-69
2022/05/23 08:48:05;;;;;;;;;;;17.00;99.90;;;;;;5063075;28;19920;-69
2022/05/23 08:50:37;;;;;;;;;;;17.00;99.90;;;;;;5062788;28;19928;-70
2022/05/23 08:53:06;;;;;;;;;;;17.10;99.90;;;;;;5060801;28;19935;-70
2022/05/23 08:55:35;;;;;;;;;;;17.20;99.90;;;;;;5062100;28;19928;-69
2022/05/23 08:58:06;;;;;;;;;;;17.30;99.90;;;;;;5060799;28;19928;-68
2022/05/23 09:00:36;;;;;;;;;;;17.40;99.90;;;;;;5063668;28;19921;-69
2022/05/23 09:03:06;;;;;;;;;;;17.60;99.90;;;;;;5063664;28;19936;-69
2022/05/23 09:05:34;;;;;;;;;;;17.80;99.90;;;;;;5062514;28;19921;-69
2022/05/23 09:08:02;;;;;;;;;;;17.90;99.90;;;;;;5061336;28;19928;-69
2022/05/23 09:10:31;;;;;;;;;;;18.10;99.90;;;;;;5063656;28;19959;-70
2022/05/23 09:12:58;;;;;;;;;;;18.20;99.90;;;;;;5063595;28;19963;-68
2022/05/23 09:15:25;;;;;;;;;;;18.30;99.90;;;;;;5062798;28;19928;-69
2022/05/23 09:17:55;;;;;;;;;;;18.30;99.90;;;;;;5063085;28;20212;-70
2022/05/23 09:20:26;;;;;;;;;;;18.40;99.90;;;;;;5063170;28;20234;-69
2022/05/23 09:22:54;;;;;;;;;;;18.50;99.90;;;;;;5063568;28;19921;-68
2022/05/23 09:25:21;;;;;;;;;;;18.50;99.90;;;;;;5062690;28;19927;-69
2022/05/23 09:27:51;;;;;;;;;;;18.60;99.90;;;;;;5064228;28;20231;-70
2022/05/23 09:30:19;;;;;;;;;;;18.60;99.90;;;;;;5066984;28;20227;-68
2022/05/23 09:32:50;;;;;;;;;;;18.80;99.90;;;;;;5067054;28;19923;-69
2022/05/23 09:35:19;;;;;;;;;;;18.90;99.90;;;;;;5066402;28;20163;-69
2022/05/23 09:37:48;;;;;;;;;;;19.00;99.90;;;;;;5065706;28;19935;-69
2022/05/23 09:40:23;;;;;;;;;;;19.10;99.90;;;;;;5067050;28;19956;-69
2022/05/23 09:48:20;;;;;;;;;;;19.30;99.90;;;;;;5066497;28;19924;-69
2022/05/23 09:50:53;;;;;;;;;;;19.40;99.90;;;;;;5066523;28;20212;-69
2022/05/23 09:53:24;;;;;;;;;;;19.50;99.90;;;;;;5066427;28;19943;-68
2022/05/23 09:55:51;;;;;;;;;;;19.60;99.90;;;;;;5065244;28;20422;-69
2022/05/23 09:58:22;;;;;;;;;;;19.70;99.90;;;;;;5066390;28;19927;-69
2022/05/23 10:00:58;;;;;;;;;;;19.90;99.90;;;;;;5066636;28;19935;-69
2022/05/23 10:03:25;;;;;;;;;;;20.00;99.90;;;;;;5066576;28;19921;-69
2022/05/23 10:06:02;;;;;;;;;;;20.10;99.90;;;;;;5065673;28;19921;-69
2022/05/23 10:08:31;;;;;;;;;;;20.20;99.90;;;;;;5063876;28;20216;-68
2022/05/23 10:10:59;;;;;;;;;;;20.20;99.90;;;;;;5066453;28;19921;-69
2022/05/23 10:13:28;;;;;;;;;;;20.20;99.90;;;;;;5066133;28;19921;-72
2022/05/23 10:15:57;;;;;;;;;;;20.30;99.90;;;;;;5065396;28;19927;-68
2022/05/23 10:18:24;;;;;;;;;;;20.40;99.90;;;;;;5065909;28;19921;-69
2022/05/23 10:20:52;;;;;;;;;;;20.50;99.90;;;;;;5066082;28;19924;-68
2022/05/23 10:23:22;;;;;;;;;;;20.60;99.90;;;;;;5065682;28;19920;-69
2022/05/23 10:25:56;;;;;;;;;;;20.70;99.90;;;;;;5065227;28;20209;-68
2022/05/23 10:28:28;;;;;;;;;;;20.80;99.90;;;;;;5066128;28;20115;-69
2022/05/23 10:30:58;;;;;;;;;;;20.90;99.90;;;;;;5065698;28;19920;-69
2022/05/23 10:33:27;;;;;;;;;;;20.90;99.90;;;;;;5065995;28;19927;-69
2022/05/23 10:35:59;;;;;;;;;;;20.90;99.90;;;;;;5065222;28;19980;-69
2022/05/23 10:44:20;;;;;;;;;;;21.10;99.90;;;;;;5042154;28;19917;-69
2022/05/23 10:46:51;;;;;;;;;;;21.40;99.90;;;;;;5042973;28;19925;-69
2022/05/23 10:49:20;;;;;;;;;;;21.60;99.90;;;;;;5054927;28;19925;-69
2022/05/23 10:51:54;;;;;;;;;;;21.70;99.90;;;;;;5059596;28;19921;-68
2022/05/23 10:54:32;;;;;;;;;;;22.00;99.90;;;;;;5064680;28;19927;-69
2022/05/23 10:57:02;;;;;;;;;;;22.20;99.90;;;;;;5064913;28;19984;-70
2022/05/23 10:59:33;;;;;;;;;;;22.40;99.90;;;;;;5068361;28;20119;-69
2022/05/23 11:02:05;;;;;;;;;;;22.60;99.90;;;;;;5082836;28;19927;-70
2022/05/23 11:04:39;;;;;;;;;;;22.70;99.90;;;;;;5064388;28;19936;-69
2022/05/23 11:07:20;;;;;;;;;;;22.80;99.90;;;;;;5066505;28;19943;-69
2022/05/23 11:09:52;;;;;;;;;;;22.90;99.90;;;;;;5062899;28;19983;-68
2022/05/23 11:12:22;;;;;;;;;;;22.90;99.90;;;;;;5064970;28;19927;-69
2022/05/23 11:15:06;;;;;;;;;;;22.80;99.90;;;;;;5064473;28;20235;-69
2022/05/23 11:17:38;;;;;;;;;;;22.60;99.90;;;;;;5064280;28;20148;-69
2022/05/23 11:20:10;;;;;;;;;;;22.50;99.90;;;;;;5065166;28;19928;-68
2022/05/23 11:22:39;;;;;;;;;;;22.40;99.90;;;;;;5064914;28;19920;-68
2022/05/23 11:25:13;;;;;;;;;;;22.30;99.90;;;;;;5064332;28;19921;-69
2022/05/23 11:35:59;;;;;;;;;;;22.30;99.90;;;;;;5070724;28;20004;-69
2022/05/23 11:38:28;;;;;;;;;;;22.30;99.90;;;;;;5050907;28;19939;-69
2022/05/23 11:41:04;;;;;;;;;;;22.20;99.90;;;;;;5076675;28;19924;-69
2022/05/23 11:43:34;;;;;;;;;;;22.20;99.90;;;;;;5069774;28;19929;-69
2022/05/23 11:46:02;;;;;;;;;;;22.20;99.90;;;;;;5062422;28;19924;-69
2022/05/23 11:48:54;;;;;;;;;;;22.10;99.90;;;;;;5078270;28;19920;-68
2022/05/23 11:51:31;;;;;;;;;;;22.00;99.90;;;;;;5080642;28;20116;-69
2022/05/23 11:54:03;;;;;;;;;;;21.90;99.90;;;;;;5066010;28;20200;-68
2022/05/23 11:56:36;;;;;;;;;;;21.90;99.90;;;;;;5063174;28;19921;-68
2022/05/23 11:59:04;;;;;;;;;;;21.90;99.90;;;;;;5062206;28;19921;-69
2022/05/23 12:01:30;;;;;;;;;;;21.90;99.90;;;;;;5060537;28;19921;-68
2022/05/23 12:04:15;;;;;;;;;;;22.00;99.90;;;;;;5063365;28;19952;-71
2022/05/23 12:06:42;;;;;;;;;;;22.00;99.90;;;;;;5042837;28;19921;-69
2022/05/23 12:09:25;;;;;;;;;;;22.00;99.90;;;;;;5058401;28;20120;-70
2022/05/23 12:11:53;;;;;;;;;;;22.00;99.90;;;;;;5063444;28;19925;-69
2022/05/23 12:14:20;;;;;;;;;;;22.00;99.90;;;;;;5063321;28;20211;-68
2022/05/23 12:17:11;;;;;;;;;;;22.00;99.90;;;;;;5055040;28;19927;-68
2022/05/23 12:19:54;;;;;;;;;;;21.90;99.90;;;;;;5023618;28;19921;-68
2022/05/23 12:22:25;;;;;;;;;;;21.90;99.90;;;;;;5042749;28;20215;-68
2022/05/23 12:25:03;;;;;;;;;;;21.80;99.90;;;;;;5043772;28;19921;-68
2022/05/23 12:27:33;;;;;;;;;;;21.70;99.90;;;;;;5043070;28;19921;-68
2022/05/23 12:30:19;;;;;;;;;;;21.60;99.90;;;;;;5043573;28;20018;-68
2022/05/23 12:32:48;;;;;;;;;;;21.50;99.90;;;;;;5040918;28;19967;-69
2022/05/23 12:35:15;;;;;;;;;;;21.40;99.90;;;;;;5061666;28;19967;-69
2022/05/23 12:37:45;;;;;;;;;;;21.30;99.90;;;;;;5067489;28;19928;-69
2022/05/23 12:40:17;;;;;;;;;;;21.30;99.90;;;;;;5074571;28;19951;-67
2022/05/23 12:42:51;;;;;;;;;;;21.20;99.90;;;;;;5068289;28;19928;-67
2022/05/23 12:45:36;;;;;;;;;;;21.20;99.90;;;;;;5082930;28;19920;-67
2022/05/23 12:48:23;;;;;;;;;;;21.10;99.90;;;;;;5082887;28;19921;-67
2022/05/23 12:50:55;;;;;;;;;;;21.10;99.90;;;;;;5083354;28;19928;-67
2022/05/23 12:53:28;;;;;;;;;;;21.00;99.90;;;;;;5079751;28;19948;-67
2022/05/23 12:56:00;;;;;;;;;;;20.90;99.90;;;;;;5062302;28;19921;-66
2022/05/23 12:58:42;;;;;;;;;;;20.90;99.90;;;;;;5062813;28;19921;-69
2022/05/23 13:01:10;;;;;;;;;;;20.80;99.90;;;;;;5063278;28;19921;-69
2022/05/23 13:03:41;;;;;;;;;;;20.70;99.90;;;;;;5079591;28;19921;-69
2022/05/23 13:06:10;;;;;;;;;;;20.60;99.90;;;;;;5065433;28;19958;-68
2022/05/23 13:08:43;;;;;;;;;;;20.40;99.90;;;;;;5073965;28;19920;-69
2022/05/23 13:11:12;;;;;;;;;;;20.30;99.90;;;;;;5074863;28;19921;-69
2022/05/23 13:13:40;;;;;;;;;;;20.30;99.90;;;;;;5067391;28;19920;-68
2022/05/23 13:16:17;;;;;;;;;;;20.10;99.90;;;;;;5066817;28;19928;-70
2022/05/23 13:24:48;;;;;;;;;;;19.60;99.90;;;;;;5065617;28;19932;-70
2022/05/23 13:27:01;;;;;;;;;;;19.50;99.90;;;;;;5081141;28;19974;-68
2022/05/23 13:29:29;;;;;;;;;;;19.50;99.90;;;;;;5087165;28;19924;-68
2022/05/23 13:31:58;;;;;;;;;;;19.50;99.90;;;;;;5080303;28;20283;-68
2022/05/23 13:34:25;;;;;;;;;;;19.50;99.90;;;;;;5072713;28;19944;-70
2022/05/23 13:36:53;;;;;;;;;;;19.60;99.90;;;;;;5071572;28;19936;-71
2022/05/23 13:39:21;;;;;;;;;;;19.70;99.90;;;;;;5080134;28;19952;-69
2022/05/23 13:41:48;;;;;;;;;;;19.70;99.90;;;;;;5086968;28;19921;-69
2022/05/23 13:44:22;;;;;;;;;;;19.80;99.90;;;;;;5070130;28;20303;-69
2022/05/23 13:46:50;;;;;;;;;;;19.80;99.90;;;;;;5066038;28;20093;-69
2022/05/23 13:49:18;;;;;;;;;;;19.80;99.90;;;;;;5070871;28;19927;-69
2022/05/23 13:51:49;;;;;;;;;;;19.80;99.90;;;;;;5066277;28;19920;-69
2022/05/23 13:54:18;;;;;;;;;;;19.80;99.90;;;;;;5067568;28;20231;-68
2022/05/23 13:56:48;;;;;;;;;;;19.80;99.90;;;;;;5076509;28;19921;-69
2022/05/23 13:59:15;;;;;;;;;;;19.70;99.90;;;;;;5065891;28;19921;-68
2022/05/23 14:01:45;;;;;;;;;;;19.60;99.90;;;;;;5065978;28;19921;-69
2022/05/23 14:04:14;;;;;;;;;;;19.60;99.90;;;;;;5052206;28;19920;-69
2022/05/23 14:06:45;;;;;;;;;;;19.50;99.90;;;;;;5068221;28;19921;-69
2022/05/23 14:09:12;;;;;;;;;;;19.50;99.90;;;;;;5070087;28;19927;-69
2022/05/23 14:11:40;;;;;;;;;;;19.40;99.90;;;;;;5074647;28;20231;-69
2022/05/23 14:14:14;;;;;;;;;;;19.40;99.90;;;;;;5063936;28;20120;-69
2022/05/23 14:16:41;;;;;;;;;;;19.30;99.90;;;;;;5061291;28;19921;-69
2022/05/23 14:19:20;;;;;;;;;;;19.40;99.90;;;;;;5065367;28;20229;-69
2022/05/23 14:22:02;;;;;;;;;;;19.40;99.90;;;;;;5064040;28;19928;-69
2022/05/23 14:24:29;;;;;;;;;;;19.50;99.90;;;;;;5068307;28;19920;-68
2022/05/23 14:27:03;;;;;;;;;;;19.70;99.90;;;;;;5063623;28;19921;-68
2022/05/23 14:29:30;;;;;;;;;;;20.00;99.90;;;;;;5065847;28;19928;-68
2022/05/23 14:32:01;;;;;;;;;;;20.30;99.90;;;;;;5076338;28;19991;-68
2022/05/23 14:34:30;;;;;;;;;;;20.60;99.90;;;;;;5067504;28;19928;-69
2022/05/23 14:36:58;;;;;;;;;;;20.70;99.90;;;;;;5071507;28;19921;-68
2022/05/23 14:39:26;;;;;;;;;;;20.90;99.90;;;;;;5067641;28;19927;-69
2022/05/23 14:41:53;;;;;;;;;;;21.10;99.90;;;;;;5064983;28;19921;-69
2022/05/23 14:44:27;;;;;;;;;;;21.10;99.90;;;;;;5064420;28;19921;-68
2022/05/23 14:46:58;;;;;;;;;;;21.00;99.90;;;;;;5064550;28;19992;-69
2022/05/23 14:49:27;;;;;;;;;;;21.10;99.90;;;;;;5064408;28;20240;-68
2022/05/23 14:51:55;;;;;;;;;;;21.10;99.90;;;;;;5064921;28;19920;-68
2022/05/23 14:57:08;;;;;;;;;;;21.20;99.90;;;;;;5064468;28;19955;-68
2022/05/23 15:02:26;;;;;;;;;;;21.50;99.90;;;;;;5064800;28;20115;-68
2022/05/23 15:04:55;;;;;;;;;;;21.90;99.90;;;;;;5064525;28;19920;-68
2022/05/23 15:07:23;;;;;;;;;;;22.30;99.90;;;;;;5063393;28;19927;-67
2022/05/23 15:09:50;;;;;;;;;;;22.60;99.90;;;;;;5064826;28;20132;-68
2022/05/23 15:12:18;;;;;;;;;;;23.10;99.90;;;;;;5064363;28;19920;-68
2022/05/23 15:14:45;;;;;;;;;;;23.40;99.90;;;;;;5062645;28;19951;-68
2022/05/23 15:17:14;;;;;;;;;;;23.70;99.90;;;;;;5062678;28;20234;-68
2022/05/23 15:19:41;;;;;;;;;;;24.00;99.90;;;;;;5063883;28;19983;-68
2022/05/23 15:22:10;;;;;;;;;;;24.30;99.90;;;;;;5063809;28;19920;-68
2022/05/23 15:24:38;;;;;;;;;;;24.40;99.90;;;;;;5064432;28;19921;-68
2022/05/23 15:27:06;;;;;;;;;;;24.50;99.90;;;;;;5063812;28;19924;-69
2022/05/23 15:29:33;;;;;;;;;;;24.70;99.90;;;;;;5064091;28;19995;-68
2022/05/23 15:32:01;;;;;;;;;;;24.60;99.90;;;;;;5064410;28;19925;-69
2022/05/23 15:34:30;;;;;;;;;;;24.60;99.90;;;;;;5063276;28;19948;-68
2022/05/23 15:36:56;;;;;;;;;;;24.50;99.90;;;;;;5063852;28;20115;-69
2022/05/23 15:39:23;;;;;;;;;;;24.40;99.90;;;;;;5063396;28;19929;-68
2022/05/23 15:41:54;;;;;;;;;;;24.30;99.90;;;;;;5066210;28;19929;-69